sensor_id;sensor_type;location;lat;lon;timestamp;P1;durP1;ratioP1;P2;durP2;ratioP2
30617;SDS011;17384;51.214;9.202;2023-07-13T00:01:45;10.52;;;2.90;;
30617;SDS011;17384;51.214;9.202;2023-07-13T00:04:14;6.03;;;2.80;;
30617;SDS011;17384;51.214;9.202;2023-07-13T00:06:42;11.35;;;3.00;;
30617;SDS011;17384;51.214;9.202;2023-07-13T00:09:10;6.60;;;2.92;;
30617;SDS011;17384;51.214;9.202;2023-07-13T00:11:37;10.52;;;2.92;;
30617;SDS011;17384;51.214;9.202;2023-07-13T00:14:03;7.00;;;3.00;;
30617;SDS011;17384;51.214;9.202;2023-07-13T00:16:28;4.38;;;2.92;;
30617;SDS011;17384;51.214;9.202;2023-07-13T00:18:54;4.35;;;3.13;;
30617;SDS011;17384;51.214;9.202;2023-07-13T00:21:19;6.38;;;2.85;;
30617;SDS011;17384;51.214;9.202;2023-07-13T00:23:45;6.25;;;2.88;;
30617;SDS011;17384;51.214;9.202;2023-07-13T00:26:11;9.02;;;3.42;;
30617;SDS011;17384;51.214;9.202;2023-07-13T00:28:37;6.13;;;2.78;;
30617;SDS011;17384;51.214;9.202;2023-07-13T00:31:04;7.88;;;3.22;;
30617;SDS011;17384;51.214;9.202;2023-07-13T00:33:29;4.63;;;2.55;;
30617;SDS011;17384;51.214;9.202;2023-07-13T00:35:55;5.10;;;2.80;;
30617;SDS011;17384;51.214;9.202;2023-07-13T00:38:21;5.18;;;3.05;;
30617;SDS011;17384;51.214;9.202;2023-07-13T00:40:47;9.10;;;3.13;;
30617;SDS011;17384;51.214;9.202;2023-07-13T00:43:14;5.53;;;3.03;;
30617;SDS011;17384;51.214;9.202;2023-07-13T00:48:10;7.72;;;2.90;;
30617;SDS011;17384;51.214;9.202;2023-07-13T00:50:39;3.58;;;2.50;;
30617;SDS011;17384;51.214;9.202;2023-07-13T00:53:06;6.65;;;3.22;;
30617;SDS011;17384;51.214;9.202;2023-07-13T00:55:32;8.13;;;2.78;;
30617;SDS011;17384;51.214;9.202;2023-07-13T00:57:59;3.13;;;2.45;;
30617;SDS011;17384;51.214;9.202;2023-07-13T01:00:24;5.50;;;2.70;;
30617;SDS011;17384;51.214;9.202;2023-07-13T01:02:51;7.55;;;3.10;;
30617;SDS011;17384;51.214;9.202;2023-07-13T01:05:18;5.50;;;2.83;;
30617;SDS011;17384;51.214;9.202;2023-07-13T01:07:44;3.05;;;2.65;;
30617;SDS011;17384;51.214;9.202;2023-07-13T01:10:11;4.53;;;2.65;;
30617;SDS011;17384;51.214;9.202;2023-07-13T01:12:37;5.28;;;3.10;;
30617;SDS011;17384;51.214;9.202;2023-07-13T01:15:03;5.50;;;3.00;;
30617;SDS011;17384;51.214;9.202;2023-07-13T01:17:30;5.03;;;2.97;;
30617;SDS011;17384;51.214;9.202;2023-07-13T01:19:58;6.18;;;3.15;;
30617;SDS011;17384;51.214;9.202;2023-07-13T01:22:23;10.80;;;3.45;;
30617;SDS011;17384;51.214;9.202;2023-07-13T01:24:52;9.30;;;3.22;;
30617;SDS011;17384;51.214;9.202;2023-07-13T01:27:21;7.90;;;3.70;;
30617;SDS011;17384;51.214;9.202;2023-07-13T01:29:50;7.88;;;3.38;;
30617;SDS011;17384;51.214;9.202;2023-07-13T01:32:19;5.40;;;3.10;;
30617;SDS011;17384;51.214;9.202;2023-07-13T01:34:49;6.75;;;3.00;;
30617;SDS011;17384;51.214;9.202;2023-07-13T01:37:16;7.10;;;3.15;;
30617;SDS011;17384;51.214;9.202;2023-07-13T01:39:42;5.90;;;3.20;;
30617;SDS011;17384;51.214;9.202;2023-07-13T01:42:07;3.78;;;2.60;;
30617;SDS011;17384;51.214;9.202;2023-07-13T01:44:33;3.60;;;2.83;;
30617;SDS011;17384;51.214;9.202;2023-07-13T01:46:58;5.55;;;2.83;;
30617;SDS011;17384;51.214;9.202;2023-07-13T01:49:24;5.65;;;3.40;;
30617;SDS011;17384;51.214;9.202;2023-07-13T01:51:49;5.30;;;2.78;;
30617;SDS011;17384;51.214;9.202;2023-07-13T01:54:15;7.82;;;3.28;;
30617;SDS011;17384;51.214;9.202;2023-07-13T01:56:40;4.13;;;3.05;;
30617;SDS011;17384;51.214;9.202;2023-07-13T01:59:07;6.35;;;3.20;;
30617;SDS011;17384;51.214;9.202;2023-07-13T02:01:33;6.32;;;3.15;;
30617;SDS011;17384;51.214;9.202;2023-07-13T02:03:59;6.80;;;3.78;;
30617;SDS011;17384;51.214;9.202;2023-07-13T02:06:24;10.38;;;4.28;;
30617;SDS011;17384;51.214;9.202;2023-07-13T02:08:50;7.00;;;4.07;;
30617;SDS011;17384;51.214;9.202;2023-07-13T02:11:15;6.32;;;3.47;;
30617;SDS011;17384;51.214;9.202;2023-07-13T02:13:42;10.20;;;4.00;;
30617;SDS011;17384;51.214;9.202;2023-07-13T02:16:08;9.38;;;3.80;;
30617;SDS011;17384;51.214;9.202;2023-07-13T02:18:33;9.18;;;3.85;;
30617;SDS011;17384;51.214;9.202;2023-07-13T02:20:59;9.07;;;4.03;;
30617;SDS011;17384;51.214;9.202;2023-07-13T02:23:24;7.93;;;3.30;;
30617;SDS011;17384;51.214;9.202;2023-07-13T02:25:54;6.72;;;3.55;;
30617;SDS011;17384;51.214;9.202;2023-07-13T02:28:20;8.57;;;3.47;;
30617;SDS011;17384;51.214;9.202;2023-07-13T02:30:46;7.90;;;4.28;;
30617;SDS011;17384;51.214;9.202;2023-07-13T02:33:11;8.90;;;3.90;;
30617;SDS011;17384;51.214;9.202;2023-07-13T02:35:37;9.07;;;3.65;;
30617;SDS011;17384;51.214;9.202;2023-07-13T02:38:02;8.15;;;3.30;;
30617;SDS011;17384;51.214;9.202;2023-07-13T02:40:28;5.82;;;3.20;;
30617;SDS011;17384;51.214;9.202;2023-07-13T02:42:53;7.88;;;3.30;;
30617;SDS011;17384;51.214;9.202;2023-07-13T02:45:19;5.78;;;3.00;;
30617;SDS011;17384;51.214;9.202;2023-07-13T02:47:44;6.35;;;3.40;;
30617;SDS011;17384;51.214;9.202;2023-07-13T02:50:09;8.63;;;3.60;;
30617;SDS011;17384;51.214;9.202;2023-07-13T02:52:35;10.98;;;3.38;;
30617;SDS011;17384;51.214;9.202;2023-07-13T02:55:01;6.80;;;3.45;;
30617;SDS011;17384;51.214;9.202;2023-07-13T02:57:26;9.50;;;3.88;;
30617;SDS011;17384;51.214;9.202;2023-07-13T02:59:53;6.15;;;3.47;;
30617;SDS011;17384;51.214;9.202;2023-07-13T03:02:19;8.68;;;3.40;;
30617;SDS011;17384;51.214;9.202;2023-07-13T03:04:45;5.60;;;2.95;;
30617;SDS011;17384;51.214;9.202;2023-07-13T03:07:10;9.95;;;2.92;;
30617;SDS011;17384;51.214;9.202;2023-07-13T03:09:36;7.30;;;2.97;;
30617;SDS011;17384;51.214;9.202;2023-07-13T03:12:01;9.25;;;2.70;;
30617;SDS011;17384;51.214;9.202;2023-07-13T03:14:27;10.68;;;2.80;;
30617;SDS011;17384;51.214;9.202;2023-07-13T03:16:53;4.72;;;2.38;;
30617;SDS011;17384;51.214;9.202;2023-07-13T03:19:18;7.35;;;2.53;;
30617;SDS011;17384;51.214;9.202;2023-07-13T03:21:44;9.93;;;2.80;;
30617;SDS011;17384;51.214;9.202;2023-07-13T03:24:10;6.60;;;2.50;;
30617;SDS011;17384;51.214;9.202;2023-07-13T03:26:36;5.00;;;2.30;;
30617;SDS011;17384;51.214;9.202;2023-07-13T03:29:02;7.68;;;2.25;;
30617;SDS011;17384;51.214;9.202;2023-07-13T03:31:28;11.25;;;2.47;;
30617;SDS011;17384;51.214;9.202;2023-07-13T03:33:55;9.20;;;2.75;;
30617;SDS011;17384;51.214;9.202;2023-07-13T03:36:23;7.32;;;2.65;;
30617;SDS011;17384;51.214;9.202;2023-07-13T03:38:52;4.05;;;2.28;;
30617;SDS011;17384;51.214;9.202;2023-07-13T03:41:19;6.90;;;2.30;;
30617;SDS011;17384;51.214;9.202;2023-07-13T03:43:45;5.65;;;2.53;;
30617;SDS011;17384;51.214;9.202;2023-07-13T03:46:13;9.02;;;2.20;;
30617;SDS011;17384;51.214;9.202;2023-07-13T03:48:38;8.75;;;2.38;;
30617;SDS011;17384;51.214;9.202;2023-07-13T03:51:06;5.15;;;2.50;;
30617;SDS011;17384;51.214;9.202;2023-07-13T03:53:31;7.90;;;2.22;;
30617;SDS011;17384;51.214;9.202;2023-07-13T03:55:56;4.75;;;2.13;;
30617;SDS011;17384;51.214;9.202;2023-07-13T03:58:23;7.05;;;2.53;;
30617;SDS011;17384;51.214;9.202;2023-07-13T04:00:53;6.40;;;2.55;;
30617;SDS011;17384;51.214;9.202;2023-07-13T04:03:19;5.70;;;2.40;;
30617;SDS011;17384;51.214;9.202;2023-07-13T04:05:44;11.30;;;3.25;;
30617;SDS011;17384;51.214;9.202;2023-07-13T04:08:11;6.85;;;2.60;;
30617;SDS011;17384;51.214;9.202;2023-07-13T04:10:36;6.88;;;2.80;;
30617;SDS011;17384;51.214;9.202;2023-07-13T04:13:03;6.05;;;2.60;;
30617;SDS011;17384;51.214;9.202;2023-07-13T04:15:30;6.40;;;2.50;;
30617;SDS011;17384;51.214;9.202;2023-07-13T04:17:56;11.45;;;2.70;;
30617;SDS011;17384;51.214;9.202;2023-07-13T04:20:22;5.07;;;2.88;;
30617;SDS011;17384;51.214;9.202;2023-07-13T04:22:49;5.00;;;2.55;;
30617;SDS011;17384;51.214;9.202;2023-07-13T04:25:14;6.45;;;2.70;;
30617;SDS011;17384;51.214;9.202;2023-07-13T04:27:40;4.60;;;2.60;;
30617;SDS011;17384;51.214;9.202;2023-07-13T04:30:05;6.40;;;2.53;;
30617;SDS011;17384;51.214;9.202;2023-07-13T04:32:32;5.30;;;2.55;;
30617;SDS011;17384;51.214;9.202;2023-07-13T04:34:57;9.13;;;3.35;;
30617;SDS011;17384;51.214;9.202;2023-07-13T04:37:24;5.40;;;2.53;;
30617;SDS011;17384;51.214;9.202;2023-07-13T04:39:51;10.45;;;2.45;;
30617;SDS011;17384;51.214;9.202;2023-07-13T04:42:16;7.93;;;2.80;;
30617;SDS011;17384;51.214;9.202;2023-07-13T04:44:47;8.00;;;2.60;;
30617;SDS011;17384;51.214;9.202;2023-07-13T04:47:14;8.45;;;2.95;;
30617;SDS011;17384;51.214;9.202;2023-07-13T04:49:39;8.35;;;2.58;;
30617;SDS011;17384;51.214;9.202;2023-07-13T04:52:05;4.95;;;3.15;;
30617;SDS011;17384;51.214;9.202;2023-07-13T04:54:32;7.10;;;2.60;;
30617;SDS011;17384;51.214;9.202;2023-07-13T04:56:59;7.22;;;2.58;;
30617;SDS011;17384;51.214;9.202;2023-07-13T04:59:25;9.20;;;2.67;;
30617;SDS011;17384;51.214;9.202;2023-07-13T05:01:50;3.30;;;2.45;;
30617;SDS011;17384;51.214;9.202;2023-07-13T05:04:16;5.28;;;2.47;;
30617;SDS011;17384;51.214;9.202;2023-07-13T05:06:42;6.55;;;3.58;;
30617;SDS011;17384;51.214;9.202;2023-07-13T05:09:08;5.97;;;2.38;;
30617;SDS011;17384;51.214;9.202;2023-07-13T05:11:33;6.40;;;2.42;;
30617;SDS011;17384;51.214;9.202;2023-07-13T05:13:59;5.53;;;2.72;;
30617;SDS011;17384;51.214;9.202;2023-07-13T05:16:26;6.63;;;2.88;;
30617;SDS011;17384;51.214;9.202;2023-07-13T05:18:52;5.60;;;2.95;;
30617;SDS011;17384;51.214;9.202;2023-07-13T05:21:18;9.32;;;2.65;;
30617;SDS011;17384;51.214;9.202;2023-07-13T05:23:43;8.10;;;2.70;;
30617;SDS011;17384;51.214;9.202;2023-07-13T05:26:09;8.25;;;2.45;;
30617;SDS011;17384;51.214;9.202;2023-07-13T05:28:36;6.25;;;2.92;;
30617;SDS011;17384;51.214;9.202;2023-07-13T05:31:02;10.43;;;2.47;;
30617;SDS011;17384;51.214;9.202;2023-07-13T05:33:27;7.68;;;2.63;;
30617;SDS011;17384;51.214;9.202;2023-07-13T05:35:53;10.13;;;2.33;;
30617;SDS011;17384;51.214;9.202;2023-07-13T05:38:19;6.82;;;2.38;;
30617;SDS011;17384;51.214;9.202;2023-07-13T05:40:45;8.30;;;2.20;;
30617;SDS011;17384;51.214;9.202;2023-07-13T05:43:11;4.63;;;1.60;;
30617;SDS011;17384;51.214;9.202;2023-07-13T05:45:37;5.95;;;2.45;;
30617;SDS011;17384;51.214;9.202;2023-07-13T05:48:03;5.93;;;1.83;;
30617;SDS011;17384;51.214;9.202;2023-07-13T05:50:28;8.10;;;2.00;;
30617;SDS011;17384;51.214;9.202;2023-07-13T05:52:53;8.63;;;2.70;;
30617;SDS011;17384;51.214;9.202;2023-07-13T05:55:19;7.55;;;2.38;;
30617;SDS011;17384;51.214;9.202;2023-07-13T05:57:45;5.22;;;1.48;;
30617;SDS011;17384;51.214;9.202;2023-07-13T06:00:10;5.13;;;1.50;;
30617;SDS011;17384;51.214;9.202;2023-07-13T06:02:36;6.57;;;2.10;;
30617;SDS011;17384;51.214;9.202;2023-07-13T06:05:02;9.75;;;1.70;;
30617;SDS011;17384;51.214;9.202;2023-07-13T06:07:31;6.72;;;1.50;;
30617;SDS011;17384;51.214;9.202;2023-07-13T06:09:57;4.90;;;1.60;;
30617;SDS011;17384;51.214;9.202;2023-07-13T06:12:24;5.20;;;1.75;;
30617;SDS011;17384;51.214;9.202;2023-07-13T06:14:50;4.32;;;1.75;;
30617;SDS011;17384;51.214;9.202;2023-07-13T06:17:16;9.55;;;1.70;;
30617;SDS011;17384;51.214;9.202;2023-07-13T06:19:41;7.90;;;1.48;;
30617;SDS011;17384;51.214;9.202;2023-07-13T06:22:12;7.72;;;1.88;;
30617;SDS011;17384;51.214;9.202;2023-07-13T06:24:41;5.97;;;1.45;;
30617;SDS011;17384;51.214;9.202;2023-07-13T06:27:06;7.03;;;1.67;;
30617;SDS011;17384;51.214;9.202;2023-07-13T06:29:32;6.82;;;1.30;;
30617;SDS011;17384;51.214;9.202;2023-07-13T06:31:58;11.32;;;2.25;;
30617;SDS011;17384;51.214;9.202;2023-07-13T06:34:23;3.17;;;1.40;;
30617;SDS011;17384;51.214;9.202;2023-07-13T06:36:49;3.80;;;1.52;;
30617;SDS011;17384;51.214;9.202;2023-07-13T06:39:14;6.03;;;1.80;;
30617;SDS011;17384;51.214;9.202;2023-07-13T06:41:39;4.38;;;1.50;;
30617;SDS011;17384;51.214;9.202;2023-07-13T06:44:05;7.18;;;1.40;;
30617;SDS011;17384;51.214;9.202;2023-07-13T06:46:31;5.97;;;1.55;;
30617;SDS011;17384;51.214;9.202;2023-07-13T06:48:57;4.78;;;1.30;;
30617;SDS011;17384;51.214;9.202;2023-07-13T06:51:23;5.00;;;1.77;;
30617;SDS011;17384;51.214;9.202;2023-07-13T06:53:48;6.22;;;1.92;;
30617;SDS011;17384;51.214;9.202;2023-07-13T06:56:15;4.13;;;1.50;;
30617;SDS011;17384;51.214;9.202;2023-07-13T06:58:40;5.28;;;1.73;;
30617;SDS011;17384;51.214;9.202;2023-07-13T07:01:06;8.00;;;1.80;;
30617;SDS011;17384;51.214;9.202;2023-07-13T07:03:32;7.82;;;2.05;;
30617;SDS011;17384;51.214;9.202;2023-07-13T07:06:01;4.28;;;1.35;;
30617;SDS011;17384;51.214;9.202;2023-07-13T07:08:33;5.80;;;1.70;;
30617;SDS011;17384;51.214;9.202;2023-07-13T07:10:58;7.85;;;1.58;;
30617;SDS011;17384;51.214;9.202;2023-07-13T07:13:24;3.90;;;1.30;;
30617;SDS011;17384;51.214;9.202;2023-07-13T07:15:49;5.15;;;1.35;;
30617;SDS011;17384;51.214;9.202;2023-07-13T07:18:16;4.25;;;1.23;;
30617;SDS011;17384;51.214;9.202;2023-07-13T07:20:41;5.60;;;1.08;;
30617;SDS011;17384;51.214;9.202;2023-07-13T07:23:07;6.25;;;1.50;;
30617;SDS011;17384;51.214;9.202;2023-07-13T07:25:32;4.22;;;1.30;;
30617;SDS011;17384;51.214;9.202;2023-07-13T07:28:02;4.07;;;1.23;;
30617;SDS011;17384;51.214;9.202;2023-07-13T07:30:27;6.38;;;1.35;;
30617;SDS011;17384;51.214;9.202;2023-07-13T07:32:53;5.10;;;1.77;;
30617;SDS011;17384;51.214;9.202;2023-07-13T07:35:18;4.70;;;1.50;;
30617;SDS011;17384;51.214;9.202;2023-07-13T07:37:44;5.53;;;1.63;;
30617;SDS011;17384;51.214;9.202;2023-07-13T07:40:09;8.25;;;1.20;;
30617;SDS011;17384;51.214;9.202;2023-07-13T07:42:35;1.98;;;0.85;;
30617;SDS011;17384;51.214;9.202;2023-07-13T07:45:00;7.05;;;1.30;;
30617;SDS011;17384;51.214;9.202;2023-07-13T07:47:26;5.57;;;1.17;;
30617;SDS011;17384;51.214;9.202;2023-07-13T07:49:51;1.88;;;1.08;;
30617;SDS011;17384;51.214;9.202;2023-07-13T07:52:17;5.45;;;1.02;;
30617;SDS011;17384;51.214;9.202;2023-07-13T07:54:43;4.38;;;1.00;;
30617;SDS011;17384;51.214;9.202;2023-07-13T07:57:09;3.60;;;1.30;;
30617;SDS011;17384;51.214;9.202;2023-07-13T07:59:35;3.15;;;1.17;;
30617;SDS011;17384;51.214;9.202;2023-07-13T08:02:01;4.40;;;1.02;;
30617;SDS011;17384;51.214;9.202;2023-07-13T08:04:27;2.95;;;1.17;;
30617;SDS011;17384;51.214;9.202;2023-07-13T08:06:53;2.90;;;1.17;;
30617;SDS011;17384;51.214;9.202;2023-07-13T08:09:21;1.00;;;0.70;;
30617;SDS011;17384;51.214;9.202;2023-07-13T08:11:46;3.90;;;1.13;;
30617;SDS011;17384;51.214;9.202;2023-07-13T08:14:12;2.45;;;0.80;;
30617;SDS011;17384;51.214;9.202;2023-07-13T08:16:39;5.78;;;1.23;;
30617;SDS011;17384;51.214;9.202;2023-07-13T08:19:05;3.13;;;0.70;;
30617;SDS011;17384;51.214;9.202;2023-07-13T08:21:31;6.00;;;1.58;;
30617;SDS011;17384;51.214;9.202;2023-07-13T08:23:56;6.38;;;1.25;;
30617;SDS011;17384;51.214;9.202;2023-07-13T08:26:22;4.72;;;1.10;;
30617;SDS011;17384;51.214;9.202;2023-07-13T08:28:47;1.77;;;0.98;;
30617;SDS011;17384;51.214;9.202;2023-07-13T08:31:13;5.32;;;1.60;;
30617;SDS011;17384;51.214;9.202;2023-07-13T08:33:39;2.80;;;1.10;;
30617;SDS011;17384;51.214;9.202;2023-07-13T08:36:06;3.00;;;1.10;;
30617;SDS011;17384;51.214;9.202;2023-07-13T08:38:32;7.15;;;1.20;;
30617;SDS011;17384;51.214;9.202;2023-07-13T08:40:58;5.47;;;1.35;;
30617;SDS011;17384;51.214;9.202;2023-07-13T08:43:28;3.80;;;1.40;;
30617;SDS011;17384;51.214;9.202;2023-07-13T08:45:58;2.85;;;1.25;;
30617;SDS011;17384;51.214;9.202;2023-07-13T08:48:32;2.70;;;0.85;;
30617;SDS011;17384;51.214;9.202;2023-07-13T08:51:09;2.83;;;0.95;;
30617;SDS011;17384;51.214;9.202;2023-07-13T08:53:50;3.50;;;1.02;;
30617;SDS011;17384;51.214;9.202;2023-07-13T08:56:21;2.33;;;1.05;;
30617;SDS011;17384;51.214;9.202;2023-07-13T08:58:49;4.25;;;1.10;;
30617;SDS011;17384;51.214;9.202;2023-07-13T09:04:25;7.00;;;1.02;;
30617;SDS011;17384;51.214;9.202;2023-07-13T09:07:16;2.85;;;1.23;;
30617;SDS011;17384;51.214;9.202;2023-07-13T09:10:10;7.18;;;1.05;;
30617;SDS011;17384;51.214;9.202;2023-07-13T09:15:41;2.90;;;1.15;;
30617;SDS011;17384;51.214;9.202;2023-07-13T09:20:46;3.85;;;1.10;;
30617;SDS011;17384;51.214;9.202;2023-07-13T09:23:17;5.47;;;1.02;;
30617;SDS011;17384;51.214;9.202;2023-07-13T09:25:48;3.15;;;0.85;;
30617;SDS011;17384;51.214;9.202;2023-07-13T09:28:28;4.05;;;1.10;;
30617;SDS011;17384;51.214;9.202;2023-07-13T09:33:37;2.80;;;1.00;;
30617;SDS011;17384;51.214;9.202;2023-07-13T09:36:20;3.28;;;1.20;;
30617;SDS011;17384;51.214;9.202;2023-07-13T09:38:54;3.00;;;1.08;;
30617;SDS011;17384;51.214;9.202;2023-07-13T09:41:39;3.50;;;1.05;;
30617;SDS011;17384;51.214;9.202;2023-07-13T09:44:14;4.47;;;1.20;;
30617;SDS011;17384;51.214;9.202;2023-07-13T09:46:45;5.03;;;1.17;;
30617;SDS011;17384;51.214;9.202;2023-07-13T09:49:17;4.05;;;0.95;;
30617;SDS011;17384;51.214;9.202;2023-07-13T09:51:43;2.33;;;1.00;;
30617;SDS011;17384;51.214;9.202;2023-07-13T09:54:22;2.38;;;0.93;;
30617;SDS011;17384;51.214;9.202;2023-07-13T09:56:59;1.98;;;0.93;;
30617;SDS011;17384;51.214;9.202;2023-07-13T09:59:29;4.00;;;1.27;;
30617;SDS011;17384;51.214;9.202;2023-07-13T10:01:58;2.10;;;0.93;;
30617;SDS011;17384;51.214;9.202;2023-07-13T10:04:30;3.47;;;0.88;;
30617;SDS011;17384;51.214;9.202;2023-07-13T10:07:05;3.70;;;1.25;;
30617;SDS011;17384;51.214;9.202;2023-07-13T10:09:32;3.22;;;0.90;;
30617;SDS011;17384;51.214;9.202;2023-07-13T10:11:57;1.88;;;1.00;;
30617;SDS011;17384;51.214;9.202;2023-07-13T10:14:23;2.90;;;0.77;;
30617;SDS011;17384;51.214;9.202;2023-07-13T10:16:51;2.58;;;0.90;;
30617;SDS011;17384;51.214;9.202;2023-07-13T10:19:25;1.77;;;0.88;;
30617;SDS011;17384;51.214;9.202;2023-07-13T10:21:57;3.67;;;1.25;;
30617;SDS011;17384;51.214;9.202;2023-07-13T10:24:26;2.10;;;0.82;;
30617;SDS011;17384;51.214;9.202;2023-07-13T10:30:12;3.78;;;0.93;;
30617;SDS011;17384;51.214;9.202;2023-07-13T10:32:57;1.85;;;0.98;;
30617;SDS011;17384;51.214;9.202;2023-07-13T10:35:23;4.50;;;1.10;;
30617;SDS011;17384;51.214;9.202;2023-07-13T10:37:56;4.15;;;1.30;;
30617;SDS011;17384;51.214;9.202;2023-07-13T10:40:29;2.85;;;0.90;;
30617;SDS011;17384;51.214;9.202;2023-07-13T10:42:59;2.33;;;0.88;;
30617;SDS011;17384;51.214;9.202;2023-07-13T10:45:30;3.40;;;1.00;;
30617;SDS011;17384;51.214;9.202;2023-07-13T10:47:59;2.33;;;1.05;;
30617;SDS011;17384;51.214;9.202;2023-07-13T10:50:26;2.78;;;1.33;;
30617;SDS011;17384;51.214;9.202;2023-07-13T10:52:56;5.40;;;1.00;;
30617;SDS011;17384;51.214;9.202;2023-07-13T10:58:41;2.10;;;0.98;;
30617;SDS011;17384;51.214;9.202;2023-07-13T11:01:11;2.17;;;1.20;;
30617;SDS011;17384;51.214;9.202;2023-07-13T11:18:48;2.55;;;0.93;;
30617;SDS011;17384;51.214;9.202;2023-07-13T11:27:02;2.92;;;0.90;;
30617;SDS011;17384;51.214;9.202;2023-07-13T11:30:13;1.83;;;0.60;;
30617;SDS011;17384;51.214;9.202;2023-07-13T11:33:14;2.67;;;0.88;;
30617;SDS011;17384;51.214;9.202;2023-07-13T11:36:07;4.72;;;0.70;;
30617;SDS011;17384;51.214;9.202;2023-07-13T11:38:43;3.53;;;1.27;;
30617;SDS011;17384;51.214;9.202;2023-07-13T11:41:15;3.67;;;1.20;;
30617;SDS011;17384;51.214;9.202;2023-07-13T11:43:49;5.18;;;1.23;;
30617;SDS011;17384;51.214;9.202;2023-07-13T11:46:23;2.35;;;0.77;;
30617;SDS011;17384;51.214;9.202;2023-07-13T11:49:11;5.93;;;0.98;;
30617;SDS011;17384;51.214;9.202;2023-07-13T11:51:56;0.77;;;0.60;;
30617;SDS011;17384;51.214;9.202;2023-07-13T11:54:25;1.92;;;0.70;;
30617;SDS011;17384;51.214;9.202;2023-07-13T11:56:55;1.88;;;0.70;;
30617;SDS011;17384;51.214;9.202;2023-07-13T11:59:32;1.70;;;0.80;;
30617;SDS011;17384;51.214;9.202;2023-07-13T12:02:14;4.10;;;0.77;;
30617;SDS011;17384;51.214;9.202;2023-07-13T12:04:51;1.98;;;0.60;;
30617;SDS011;17384;51.214;9.202;2023-07-13T12:07:17;2.28;;;1.02;;
30617;SDS011;17384;51.214;9.202;2023-07-13T12:09:45;1.35;;;0.80;;
30617;SDS011;17384;51.214;9.202;2023-07-13T12:12:18;2.35;;;0.88;;
30617;SDS011;17384;51.214;9.202;2023-07-13T12:14:51;2.08;;;0.80;;
30617;SDS011;17384;51.214;9.202;2023-07-13T12:17:19;4.60;;;1.05;;
30617;SDS011;17384;51.214;9.202;2023-07-13T12:19:50;3.33;;;1.00;;
30617;SDS011;17384;51.214;9.202;2023-07-13T12:22:17;1.63;;;0.73;;
30617;SDS011;17384;51.214;9.202;2023-07-13T12:24:45;1.55;;;0.70;;
30617;SDS011;17384;51.214;9.202;2023-07-13T12:27:23;3.45;;;0.98;;
30617;SDS011;17384;51.214;9.202;2023-07-13T12:29:53;2.83;;;1.25;;
30617;SDS011;17384;51.214;9.202;2023-07-13T12:32:25;2.47;;;0.80;;
30617;SDS011;17384;51.214;9.202;2023-07-13T12:34:56;2.55;;;1.15;;
30617;SDS011;17384;51.214;9.202;2023-07-13T12:37:33;1.67;;;0.80;;
30617;SDS011;17384;51.214;9.202;2023-07-13T12:40:03;1.45;;;0.95;;
30617;SDS011;17384;51.214;9.202;2023-07-13T12:42:34;3.47;;;1.10;;
30617;SDS011;17384;51.214;9.202;2023-07-13T12:47:41;2.40;;;1.00;;
30617;SDS011;17384;51.214;9.202;2023-07-13T12:50:15;5.70;;;0.90;;
30617;SDS011;17384;51.214;9.202;2023-07-13T12:52:44;2.65;;;1.00;;
30617;SDS011;17384;51.214;9.202;2023-07-13T12:55:28;6.53;;;1.70;;
30617;SDS011;17384;51.214;9.202;2023-07-13T12:57:59;1.75;;;0.90;;
30617;SDS011;17384;51.214;9.202;2023-07-13T13:00:34;3.20;;;1.27;;
30617;SDS011;17384;51.214;9.202;2023-07-13T13:03:21;4.45;;;1.42;;
30617;SDS011;17384;51.214;9.202;2023-07-13T13:05:56;2.33;;;1.17;;
30617;SDS011;17384;51.214;9.202;2023-07-13T13:08:30;1.58;;;1.08;;
30617;SDS011;17384;51.214;9.202;2023-07-13T13:10:59;2.30;;;1.20;;
30617;SDS011;17384;51.214;9.202;2023-07-13T13:13:25;2.05;;;0.98;;
30617;SDS011;17384;51.214;9.202;2023-07-13T13:15:54;4.18;;;1.10;;
30617;SDS011;17384;51.214;9.202;2023-07-13T13:18:24;5.05;;;1.70;;
30617;SDS011;17384;51.214;9.202;2023-07-13T13:20:53;2.35;;;1.10;;
30617;SDS011;17384;51.214;9.202;2023-07-13T13:23:19;2.50;;;0.98;;
30617;SDS011;17384;51.214;9.202;2023-07-13T13:25:50;2.67;;;1.25;;
30617;SDS011;17384;51.214;9.202;2023-07-13T13:28:19;3.10;;;1.40;;
30617;SDS011;17384;51.214;9.202;2023-07-13T13:30:49;2.53;;;1.10;;
30617;SDS011;17384;51.214;9.202;2023-07-13T13:33:17;3.45;;;0.98;;
30617;SDS011;17384;51.214;9.202;2023-07-13T13:35:47;1.90;;;1.15;;
30617;SDS011;17384;51.214;9.202;2023-07-13T13:38:24;3.00;;;1.05;;
30617;SDS011;17384;51.214;9.202;2023-07-13T13:43:36;7.10;;;1.20;;
30617;SDS011;17384;51.214;9.202;2023-07-13T13:46:02;3.58;;;1.20;;
30617;SDS011;17384;51.214;9.202;2023-07-13T13:48:38;2.78;;;1.10;;
30617;SDS011;17384;51.214;9.202;2023-07-13T13:51:15;3.83;;;1.08;;
30617;SDS011;17384;51.214;9.202;2023-07-13T13:53:46;1.48;;;0.75;;
30617;SDS011;17384;51.214;9.202;2023-07-13T13:56:13;3.17;;;0.90;;
30617;SDS011;17384;51.214;9.202;2023-07-13T13:58:39;1.15;;;0.82;;
30617;SDS011;17384;51.214;9.202;2023-07-13T14:01:05;2.97;;;1.20;;
30617;SDS011;17384;51.214;9.202;2023-07-13T14:03:37;2.57;;;1.20;;
30617;SDS011;17384;51.214;9.202;2023-07-13T14:06:02;4.20;;;1.20;;
30617;SDS011;17384;51.214;9.202;2023-07-13T14:08:28;2.20;;;1.00;;
30617;SDS011;17384;51.214;9.202;2023-07-13T14:10:54;2.53;;;1.13;;
30617;SDS011;17384;51.214;9.202;2023-07-13T14:13:26;5.20;;;1.23;;
30617;SDS011;17384;51.214;9.202;2023-07-13T14:15:56;3.08;;;1.27;;
30617;SDS011;17384;51.214;9.202;2023-07-13T14:18:21;3.13;;;1.15;;
30617;SDS011;17384;51.214;9.202;2023-07-13T14:20:48;2.97;;;1.17;;
30617;SDS011;17384;51.214;9.202;2023-07-13T14:23:15;3.03;;;1.10;;
30617;SDS011;17384;51.214;9.202;2023-07-13T14:25:43;5.18;;;1.10;;
30617;SDS011;17384;51.214;9.202;2023-07-13T14:28:25;1.85;;;0.95;;
30617;SDS011;17384;51.214;9.202;2023-07-13T14:30:52;3.15;;;1.00;;
30617;SDS011;17384;51.214;9.202;2023-07-13T14:33:19;2.85;;;1.33;;
30617;SDS011;17384;51.214;9.202;2023-07-13T14:35:45;2.95;;;0.73;;
30617;SDS011;17384;51.214;9.202;2023-07-13T14:38:11;2.08;;;1.00;;
30617;SDS011;17384;51.214;9.202;2023-07-13T14:40:42;3.90;;;0.95;;
30617;SDS011;17384;51.214;9.202;2023-07-13T14:43:09;2.53;;;0.98;;
30617;SDS011;17384;51.214;9.202;2023-07-13T14:45:37;2.38;;;0.88;;
30617;SDS011;17384;51.214;9.202;2023-07-13T14:50:38;2.72;;;0.90;;
30617;SDS011;17384;51.214;9.202;2023-07-13T14:53:05;3.08;;;1.13;;
30617;SDS011;17384;51.214;9.202;2023-07-13T14:55:36;6.63;;;1.00;;
30617;SDS011;17384;51.214;9.202;2023-07-13T14:58:02;3.47;;;0.95;;
30617;SDS011;17384;51.214;9.202;2023-07-13T15:00:27;1.95;;;0.90;;
30617;SDS011;17384;51.214;9.202;2023-07-13T15:02:54;4.00;;;0.93;;
30617;SDS011;17384;51.214;9.202;2023-07-13T15:05:27;2.33;;;1.08;;
30617;SDS011;17384;51.214;9.202;2023-07-13T15:07:56;3.30;;;1.00;;
30617;SDS011;17384;51.214;9.202;2023-07-13T15:10:27;1.43;;;0.67;;
30617;SDS011;17384;51.214;9.202;2023-07-13T15:13:12;2.83;;;1.15;;
30617;SDS011;17384;51.214;9.202;2023-07-13T15:15:42;2.72;;;1.33;;
30617;SDS011;17384;51.214;9.202;2023-07-13T15:18:18;3.92;;;1.20;;
30617;SDS011;17384;51.214;9.202;2023-07-13T15:20:47;3.53;;;1.10;;
30617;SDS011;17384;51.214;9.202;2023-07-13T15:23:14;1.63;;;1.00;;
30617;SDS011;17384;51.214;9.202;2023-07-13T15:25:42;1.30;;;1.08;;
30617;SDS011;17384;51.214;9.202;2023-07-13T15:28:08;4.57;;;1.20;;
30617;SDS011;17384;51.214;9.202;2023-07-13T15:30:42;3.75;;;1.10;;
30617;SDS011;17384;51.214;9.202;2023-07-13T15:33:13;2.25;;;1.17;;
30617;SDS011;17384;51.214;9.202;2023-07-13T15:35:42;3.03;;;1.15;;
30617;SDS011;17384;51.214;9.202;2023-07-13T15:38:15;2.40;;;1.35;;
30617;SDS011;17384;51.214;9.202;2023-07-13T15:40:43;5.57;;;1.20;;
30617;SDS011;17384;51.214;9.202;2023-07-13T15:43:11;3.30;;;0.98;;
30617;SDS011;17384;51.214;9.202;2023-07-13T15:45:38;3.42;;;1.10;;